Time;durP1;ratioP1;P1;durP2;ratioP2;P2;SDS_P1;SDS_P2;PMS_P1;PMS_P2;Temp;Humidity;BMP_temperature;BMP_pressure;BME280_temperature;BME280_humidity;BME280_pressure;Samples;Min_cycle;Max_cycle;Signal;HPM_P1;HPM_P2
2022/12/22 03:27:07;;;;;;;;;;;7.10;99.90;;;;;;5014015;28;19924;-79
2022/12/22 03:29:33;;;;;;;;;;;7.10;99.90;;;;;;5013393;28;19910;-80
2022/12/22 03:31:58;;;;;;;;;;;7.10;99.90;;;;;;5014011;28;19967;-81
2022/12/22 03:34:24;;;;;;;;;;;7.10;99.90;;;;;;5014021;28;19917;-80
2022/12/22 03:36:49;;;;;;;;;;;7.10;99.90;;;;;;5013779;28;19959;-80
2022/12/22 03:39:15;;;;;;;;;;;7.10;99.90;;;;;;5013503;28;19965;-80
2022/12/22 03:47:09;;;;;;;;;;;7.10;99.90;;;;;;5013718;28;19987;-80
2022/12/22 03:49:34;;;;;;;;;;;7.10;99.90;;;;;;5013377;28;19914;-81
2022/12/22 03:52:00;;;;;;;;;;;7.10;99.90;;;;;;5013824;28;19917;-81
2022/12/22 03:54:26;;;;;;;;;;;7.10;99.90;;;;;;5013581;28;19910;-80
2022/12/22 03:56:52;;;;;;;;;;;7.10;99.90;;;;;;5012986;28;19910;-80
2022/12/22 03:59:18;;;;;;;;;;;7.10;99.90;;;;;;5013225;28;19917;-81
2022/12/22 04:01:48;;;;;;;;;;;7.10;99.90;;;;;;5012875;28;19909;-81
2022/12/22 04:04:14;;;;;;;;;;;7.10;99.90;;;;;;5013341;28;20328;-81
2022/12/22 04:06:40;;;;;;;;;;;7.00;99.90;;;;;;5012629;28;19917;-81
2022/12/22 04:09:06;;;;;;;;;;;7.00;99.90;;;;;;5013411;28;19909;-81
2022/12/22 04:14:15;;;;;;;;;;;7.00;99.90;;;;;;5013345;28;20350;-80
2022/12/22 04:16:41;;;;;;;;;;;7.00;99.90;;;;;;5012951;28;19925;-80
2022/12/22 04:19:07;;;;;;;;;;;7.00;99.90;;;;;;5012965;28;19910;-80
2022/12/22 04:21:33;;;;;;;;;;;7.00;99.90;;;;;;5012651;28;19920;-84
2022/12/22 04:23:59;;;;;;;;;;;7.00;99.90;;;;;;5011576;28;20244;-80
2022/12/22 04:26:24;;;;;;;;;;;7.00;99.90;;;;;;5012543;28;19971;-80
2022/12/22 04:28:51;;;;;;;;;;;7.00;99.90;;;;;;5012816;28;19919;-80
2022/12/22 04:31:16;;;;;;;;;;;7.00;99.90;;;;;;5012609;28;19993;-81
2022/12/22 04:33:42;;;;;;;;;;;7.00;99.90;;;;;;5011133;28;19909;-80
2022/12/22 04:36:08;;;;;;;;;;;7.00;99.90;;;;;;5012196;28;19913;-80
2022/12/22 04:38:34;;;;;;;;;;;6.90;99.90;;;;;;5012203;28;19910;-84
2022/12/22 04:41:00;;;;;;;;;;;7.00;99.90;;;;;;5012397;28;19916;-81
2022/12/22 04:43:25;;;;;;;;;;;6.90;99.90;;;;;;5012369;28;19914;-81
2022/12/22 04:45:52;;;;;;;;;;;6.90;99.90;;;;;;5012042;28;19931;-81
2022/12/22 04:48:17;;;;;;;;;;;6.90;99.90;;;;;;5012513;28;19918;-81
2022/12/22 04:50:43;;;;;;;;;;;6.90;99.90;;;;;;5011037;28;19913;-85
2022/12/22 04:53:09;;;;;;;;;;;6.90;99.90;;;;;;5011410;28;19920;-80
2022/12/22 04:55:34;;;;;;;;;;;6.90;99.90;;;;;;5012456;28;19975;-87
2022/12/22 04:58:00;;;;;;;;;;;6.90;99.90;;;;;;5012567;28;19949;-80
2022/12/22 05:00:25;;;;;;;;;;;6.90;99.90;;;;;;5012646;28;19909;-82
2022/12/22 05:02:52;;;;;;;;;;;6.90;99.90;;;;;;5012193;28;19909;-78
2022/12/22 05:05:17;;;;;;;;;;;6.90;99.90;;;;;;5012807;28;19942;-79
2022/12/22 05:07:43;;;;;;;;;;;6.90;99.90;;;;;;5011705;28;20020;-79
2022/12/22 05:10:09;;;;;;;;;;;6.90;99.90;;;;;;5012374;28;19909;-82
2022/12/22 05:15:19;;;;;;;;;;;6.90;99.90;;;;;;5012768;28;20338;-83
2022/12/22 05:17:44;;;;;;;;;;;6.90;99.90;;;;;;5010577;28;19910;-84
2022/12/22 05:20:10;;;;;;;;;;;6.90;99.90;;;;;;5010666;28;19909;-85
2022/12/22 05:22:35;;;;;;;;;;;6.80;99.90;;;;;;5012154;28;19984;-88
2022/12/22 05:25:01;;;;;;;;;;;6.80;99.90;;;;;;5010741;28;19910;-84
2022/12/22 05:27:26;;;;;;;;;;;6.90;99.90;;;;;;5010790;28;20359;-84
2022/12/22 05:29:52;;;;;;;;;;;6.90;99.90;;;;;;5011607;28;19917;-85
2022/12/22 05:32:18;;;;;;;;;;;6.90;99.90;;;;;;5010805;28;20020;-85
2022/12/22 05:34:43;;;;;;;;;;;6.90;99.90;;;;;;5010288;28;19909;-85
2022/12/22 05:37:09;;;;;;;;;;;6.90;99.90;;;;;;5012089;28;20378;-86
2022/12/22 05:39:34;;;;;;;;;;;6.90;99.90;;;;;;5011705;28;19921;-85
2022/12/22 05:42:00;;;;;;;;;;;6.80;99.90;;;;;;5011186;28;19991;-86
2022/12/22 05:44:25;;;;;;;;;;;6.80;99.90;;;;;;5010473;28;19944;-86
2022/12/22 05:46:51;;;;;;;;;;;6.90;99.90;;;;;;5010040;28;19917;-86
2022/12/22 05:49:17;;;;;;;;;;;6.80;99.90;;;;;;5012364;28;19909;-86
2022/12/22 05:51:42;;;;;;;;;;;6.80;99.90;;;;;;5012062;28;19961;-84
2022/12/22 05:54:08;;;;;;;;;;;6.80;99.90;;;;;;5011784;28;20052;-83
2022/12/22 05:56:34;;;;;;;;;;;6.80;99.90;;;;;;5011243;28;19981;-83
2022/12/22 05:58:59;;;;;;;;;;;6.80;99.90;;;;;;5011437;28;19909;-83
2022/12/22 06:01:25;;;;;;;;;;;6.80;99.90;;;;;;5012004;28;19965;-84
2022/12/22 06:03:51;;;;;;;;;;;6.80;99.90;;;;;;5014983;28;19921;-84
2022/12/22 06:06:16;;;;;;;;;;;6.80;99.90;;;;;;5016299;28;19988;-84
2022/12/22 06:08:42;;;;;;;;;;;6.80;99.90;;;;;;5015428;28;20061;-84
2022/12/22 06:11:07;;;;;;;;;;;6.80;99.90;;;;;;5015727;28;19910;-84
2022/12/22 06:13:33;;;;;;;;;;;6.80;99.90;;;;;;5015623;28;20011;-83
2022/12/22 06:15:58;;;;;;;;;;;6.80;99.90;;;;;;5015031;28;19931;-84
2022/12/22 06:18:24;;;;;;;;;;;6.80;99.90;;;;;;5015343;28;19916;-84
2022/12/22 06:20:50;;;;;;;;;;;6.80;99.90;;;;;;5015003;28;19909;-84
2022/12/22 06:23:16;;;;;;;;;;;6.80;99.90;;;;;;5015456;28;19921;-84
2022/12/22 06:25:41;;;;;;;;;;;6.70;99.90;;;;;;5013093;28;20271;-85
2022/12/22 06:28:07;;;;;;;;;;;6.80;99.90;;;;;;5015015;28;19967;-83
2022/12/22 06:30:32;;;;;;;;;;;6.70;99.90;;;;;;5014670;28;19917;-83
2022/12/22 06:32:58;;;;;;;;;;;6.70;99.90;;;;;;5014537;28;19917;-83
2022/12/22 06:35:24;;;;;;;;;;;6.70;99.90;;;;;;5015178;28;19910;-83
2022/12/22 06:37:50;;;;;;;;;;;6.70;99.90;;;;;;5014237;28;20279;-83
2022/12/22 06:40:15;;;;;;;;;;;6.70;99.90;;;;;;5014949;28;19980;-82
2022/12/22 06:45:25;;;;;;;;;;;6.60;99.90;;;;;;5014994;28;19916;-82
2022/12/22 06:47:50;;;;;;;;;;;6.60;99.90;;;;;;5014352;28;19917;-84
2022/12/22 06:50:16;;;;;;;;;;;6.60;99.90;;;;;;5014639;28;20261;-83
2022/12/22 06:52:41;;;;;;;;;;;6.60;99.90;;;;;;5014614;28;19910;-85
2022/12/22 06:55:07;;;;;;;;;;;6.60;99.90;;;;;;5014742;28;20384;-83
2022/12/22 06:57:33;;;;;;;;;;;6.60;99.90;;;;;;5014642;28;19909;-83
2022/12/22 06:59:58;;;;;;;;;;;6.60;99.90;;;;;;5014458;28;19957;-84
2022/12/22 07:02:24;;;;;;;;;;;6.60;99.90;;;;;;5013824;28;20279;-83
2022/12/22 07:04:49;;;;;;;;;;;6.60;99.90;;;;;;5014432;28;20242;-84
2022/12/22 07:07:15;;;;;;;;;;;6.60;99.90;;;;;;5014171;28;19922;-84
2022/12/22 07:09:40;;;;;;;;;;;6.60;99.90;;;;;;5014023;28;19910;-85
2022/12/22 07:12:06;;;;;;;;;;;6.60;99.90;;;;;;5013297;28;19941;-84
2022/12/22 07:14:31;;;;;;;;;;;6.60;99.90;;;;;;5012334;28;20279;-83
2022/12/22 07:16:57;;;;;;;;;;;6.60;99.90;;;;;;5013962;28;19917;-84
2022/12/22 07:19:22;;;;;;;;;;;6.60;99.90;;;;;;5014001;28;20360;-83
2022/12/22 07:21:49;;;;;;;;;;;6.60;99.90;;;;;;5013443;28;19909;-84
2022/12/22 07:24:21;;;;;;;;;;;6.60;99.90;;;;;;5012162;28;19937;-84
2022/12/22 07:26:47;;;;;;;;;;;6.60;99.90;;;;;;5013429;28;19925;-82
2022/12/22 07:29:13;;;;;;;;;;;6.60;99.90;;;;;;5017931;28;19910;-82
2022/12/22 07:31:38;;;;;;;;;;;6.60;99.90;;;;;;5017116;28;20331;-82
2022/12/22 07:34:04;;;;;;;;;;;6.60;99.90;;;;;;5019344;28;19980;-82
2022/12/22 07:36:29;;;;;;;;;;;6.60;99.90;;;;;;5019093;28;19996;-82
2022/12/22 07:38:55;;;;;;;;;;;6.60;99.90;;;;;;5016281;28;19967;-81
2022/12/22 07:44:05;;;;;;;;;;;6.60;99.90;;;;;;5025885;28;19913;-82
2022/12/22 07:46:32;;;;;;;;;;;6.60;99.90;;;;;;5027478;28;19913;-82
2022/12/22 07:51:42;;;;;;;;;;;6.60;99.90;;;;;;5017817;28;19978;-82
2022/12/22 07:54:09;;;;;;;;;;;6.60;99.90;;;;;;5016729;28;19918;-81
2022/12/22 07:56:35;;;;;;;;;;;6.60;99.90;;;;;;5015707;28;20004;-82
2022/12/22 07:59:00;;;;;;;;;;;6.60;99.90;;;;;;5016438;28;19976;-82
2022/12/22 08:01:26;;;;;;;;;;;6.60;99.90;;;;;;5016581;28;19910;-82
2022/12/22 08:03:52;;;;;;;;;;;6.60;99.90;;;;;;5016625;28;20370;-84
2022/12/22 08:06:17;;;;;;;;;;;6.60;99.90;;;;;;5015916;28;19909;-82
2022/12/22 08:08:43;;;;;;;;;;;6.60;99.90;;;;;;5015221;28;19917;-82
2022/12/22 08:11:09;;;;;;;;;;;6.60;99.90;;;;;;5015032;28;19909;-82
2022/12/22 08:13:34;;;;;;;;;;;6.60;99.90;;;;;;5015306;28;20279;-82
2022/12/22 08:16:03;;;;;;;;;;;6.60;99.90;;;;;;5014394;28;19914;-83
2022/12/22 08:18:29;;;;;;;;;;;6.60;99.90;;;;;;5011848;28;20379;-84
2022/12/22 08:20:55;;;;;;;;;;;6.60;99.90;;;;;;5013230;28;19921;-81
2022/12/22 08:23:20;;;;;;;;;;;6.60;99.90;;;;;;5015148;28;19909;-79
2022/12/22 08:25:47;;;;;;;;;;;6.50;99.90;;;;;;5014241;28;20363;-87
2022/12/22 08:28:15;;;;;;;;;;;6.50;99.90;;;;;;5014132;28;19960;-80
2022/12/22 08:30:41;;;;;;;;;;;6.50;99.90;;;;;;5014336;28;19956;-80
2022/12/22 08:33:07;;;;;;;;;;;6.50;99.90;;;;;;5013649;28;19905;-79
2022/12/22 08:35:32;;;;;;;;;;;6.50;99.90;;;;;;5013872;28;20374;-80
2022/12/22 08:37:58;;;;;;;;;;;6.50;99.90;;;;;;5013429;28;19909;-79
2022/12/22 08:40:26;;;;;;;;;;;6.50;99.90;;;;;;5013696;28;19921;-78
2022/12/22 08:42:55;;;;;;;;;;;6.50;99.90;;;;;;5013386;28;19925;-78
2022/12/22 08:45:21;;;;;;;;;;;6.50;99.90;;;;;;5013388;28;19913;-77
2022/12/22 08:47:46;;;;;;;;;;;6.50;99.90;;;;;;5013486;28;19940;-79
2022/12/22 08:50:12;;;;;;;;;;;6.50;99.90;;;;;;5013862;28;19921;-80
2022/12/22 08:52:38;;;;;;;;;;;6.50;99.90;;;;;;5013336;28;20028;-82
2022/12/22 08:55:04;;;;;;;;;;;6.50;99.90;;;;;;5013395;28;20366;-81
2022/12/22 08:57:29;;;;;;;;;;;6.50;99.90;;;;;;5013505;28;20347;-82
2022/12/22 08:59:55;;;;;;;;;;;6.50;99.90;;;;;;5013594;28;20323;-82
2022/12/22 09:02:21;;;;;;;;;;;6.50;99.90;;;;;;5012118;28;20358;-83
2022/12/22 09:04:46;;;;;;;;;;;6.50;99.90;;;;;;5012255;28;19979;-83
2022/12/22 09:07:12;;;;;;;;;;;6.40;99.90;;;;;;5012532;28;20212;-84
2022/12/22 09:09:37;;;;;;;;;;;6.40;99.90;;;;;;5013417;28;20270;-83
2022/12/22 09:12:03;;;;;;;;;;;6.40;99.90;;;;;;5012381;28;19916;-86
2022/12/22 09:14:29;;;;;;;;;;;6.40;99.90;;;;;;5013013;28;19996;-83
2022/12/22 09:16:55;;;;;;;;;;;6.40;99.90;;;;;;5012141;28;20302;-84
2022/12/22 09:19:20;;;;;;;;;;;6.40;99.90;;;;;;5012533;28;20370;-85
2022/12/22 09:21:46;;;;;;;;;;;6.40;99.90;;;;;;5010728;28;19975;-83
2022/12/22 09:24:11;;;;;;;;;;;6.40;99.90;;;;;;5011706;28;20533;-83
2022/12/22 09:26:37;;;;;;;;;;;6.40;99.90;;;;;;5010373;28;19941;-83
2022/12/22 09:29:03;;;;;;;;;;;6.50;99.90;;;;;;5011385;28;19910;-83
2022/12/22 09:31:29;;;;;;;;;;;6.50;99.90;;;;;;5011864;28;20278;-82
2022/12/22 09:33:54;;;;;;;;;;;6.50;99.90;;;;;;5011307;28;19909;-83
2022/12/22 09:36:24;;;;;;;;;;;6.50;99.90;;;;;;5015392;28;19975;-83
2022/12/22 09:38:49;;;;;;;;;;;6.50;99.90;;;;;;5017272;28;19922;-84
2022/12/22 09:41:17;;;;;;;;;;;6.50;99.90;;;;;;5018058;28;19959;-85
2022/12/22 09:43:43;;;;;;;;;;;6.60;99.90;;;;;;5018996;28;19920;-85
2022/12/22 09:46:17;;;;;;;;;;;6.60;99.90;;;;;;5018394;28;19996;-83
2022/12/22 09:48:42;;;;;;;;;;;6.60;99.90;;;;;;5018533;28;20382;-85
2022/12/22 09:51:11;;;;;;;;;;;6.70;99.90;;;;;;5018250;28;19910;-84
2022/12/22 09:53:36;;;;;;;;;;;6.80;99.90;;;;;;5018501;28;19921;-83
2022/12/22 09:56:02;;;;;;;;;;;6.90;99.90;;;;;;5016364;28;19918;-84
2022/12/22 09:58:29;;;;;;;;;;;6.80;99.90;;;;;;5000711;28;19921;-83
2022/12/22 10:01:07;;;;;;;;;;;6.90;99.90;;;;;;5016411;28;20353;-85
2022/12/22 10:03:35;;;;;;;;;;;7.00;99.90;;;;;;5017405;28;20303;-84
2022/12/22 10:06:09;;;;;;;;;;;7.00;99.90;;;;;;5018213;28;20337;-83
2022/12/22 10:08:36;;;;;;;;;;;7.00;99.90;;;;;;5018285;28;19928;-82
2022/12/22 10:11:02;;;;;;;;;;;7.00;99.90;;;;;;5017555;28;19910;-83
2022/12/22 10:13:28;;;;;;;;;;;7.00;99.90;;;;;;5017954;28;19956;-83
2022/12/22 10:15:54;;;;;;;;;;;7.00;99.90;;;;;;5017964;28;20379;-87
2022/12/22 10:18:27;;;;;;;;;;;7.10;99.90;;;;;;5017861;28;19964;-82
2022/12/22 10:21:05;;;;;;;;;;;7.10;99.90;;;;;;5017786;28;19956;-82
2022/12/22 10:23:33;;;;;;;;;;;7.20;99.90;;;;;;5018070;28;20306;-82
2022/12/22 10:26:01;;;;;;;;;;;7.20;99.90;;;;;;5016218;28;19948;-82
2022/12/22 10:28:30;;;;;;;;;;;7.20;99.90;;;;;;5017965;28;20004;-82
2022/12/22 10:31:08;;;;;;;;;;;7.20;99.90;;;;;;5017890;28;19917;-85
2022/12/22 10:33:33;;;;;;;;;;;7.10;99.90;;;;;;5018237;28;19909;-82
2022/12/22 10:35:59;;;;;;;;;;;7.20;99.90;;;;;;5017532;28;19919;-83
2022/12/22 10:38:29;;;;;;;;;;;7.10;99.90;;;;;;5017458;28;20359;-80
2022/12/22 10:41:01;;;;;;;;;;;7.10;99.90;;;;;;5017811;28;19917;-83
2022/12/22 10:43:28;;;;;;;;;;;7.10;99.90;;;;;;5017481;28;20362;-82
2022/12/22 10:45:54;;;;;;;;;;;7.10;99.90;;;;;;5017915;28;19920;-81
2022/12/22 10:48:32;;;;;;;;;;;7.10;99.90;;;;;;5015328;28;19924;-80
2022/12/22 10:50:58;;;;;;;;;;;7.10;99.90;;;;;;5014274;28;19909;-84
2022/12/22 10:53:43;;;;;;;;;;;7.20;99.90;;;;;;5014953;28;19910;-81
2022/12/22 10:56:16;;;;;;;;;;;7.20;99.90;;;;;;5014204;28;19917;-82
2022/12/22 10:58:54;;;;;;;;;;;7.30;99.90;;;;;;5014475;28;20438;-81
2022/12/22 11:01:28;;;;;;;;;;;7.30;99.90;;;;;;5013183;28;19910;-81
2022/12/22 11:03:53;;;;;;;;;;;7.30;99.90;;;;;;5014370;28;19910;-81
2022/12/22 11:06:19;;;;;;;;;;;7.40;99.90;;;;;;5013658;28;19931;-82
2022/12/22 11:08:45;;;;;;;;;;;7.40;99.90;;;;;;5014251;28;20004;-82
2022/12/22 11:11:15;;;;;;;;;;;7.50;99.90;;;;;;5012258;28;19910;-79
2022/12/22 11:13:43;;;;;;;;;;;7.50;99.90;;;;;;5014246;28;19917;-81
2022/12/22 11:16:15;;;;;;;;;;;7.60;99.90;;;;;;5013568;28;19914;-81
2022/12/22 11:18:59;;;;;;;;;;;7.50;99.90;;;;;;5013759;28;20004;-81
2022/12/22 11:21:24;;;;;;;;;;;7.50;99.90;;;;;;5014115;28;19916;-81
2022/12/22 11:23:50;;;;;;;;;;;7.50;99.90;;;;;;5013980;28;19999;-80
2022/12/22 11:26:35;;;;;;;;;;;7.50;99.90;;;;;;5013575;28;20397;-81
2022/12/22 11:29:19;;;;;;;;;;;7.40;99.90;;;;;;5013433;28;20004;-85
2022/12/22 11:31:51;;;;;;;;;;;7.40;99.90;;;;;;5013643;28;19925;-82
2022/12/22 11:34:31;;;;;;;;;;;7.40;99.90;;;;;;5013863;28;19983;-82
2022/12/22 11:37:15;;;;;;;;;;;7.40;99.90;;;;;;5014007;28;19919;-80
2022/12/22 11:39:44;;;;;;;;;;;7.40;99.90;;;;;;5013202;28;20024;-81
2022/12/22 11:42:16;;;;;;;;;;;7.40;99.90;;;;;;5013319;28;20213;-81
2022/12/22 11:44:47;;;;;;;;;;;7.50;99.90;;;;;;5013689;28;19909;-81
2022/12/22 11:47:39;;;;;;;;;;;7.50;99.90;;;;;;5013414;28;19917;-82
2022/12/22 11:50:04;;;;;;;;;;;7.60;99.90;;;;;;5011526;28;19910;-82
2022/12/22 11:52:36;;;;;;;;;;;7.60;99.90;;;;;;5013531;28;20043;-82
2022/12/22 11:55:10;;;;;;;;;;;7.70;99.90;;;;;;5013241;28;19909;-83
2022/12/22 11:57:48;;;;;;;;;;;7.80;99.90;;;;;;5013545;28;19917;-82
2022/12/22 12:00:15;;;;;;;;;;;7.80;99.90;;;;;;5012636;28;19909;-81
2022/12/22 12:02:59;;;;;;;;;;;7.80;99.90;;;;;;5013204;28;19993;-81
2022/12/22 12:05:40;;;;;;;;;;;7.80;99.90;;;;;;5013690;28;19909;-81
2022/12/22 12:08:14;;;;;;;;;;;7.80;99.90;;;;;;5012672;28;19921;-82
2022/12/22 12:10:52;;;;;;;;;;;7.80;99.90;;;;;;5013077;28;19910;-82
2022/12/22 12:13:32;;;;;;;;;;;7.80;99.90;;;;;;5013078;28;20371;-82
2022/12/22 12:16:01;;;;;;;;;;;7.80;99.90;;;;;;5013540;28;19973;-81
2022/12/22 12:18:41;;;;;;;;;;;7.80;99.90;;;;;;5011672;28;19930;-81
2022/12/22 12:21:17;;;;;;;;;;;7.80;99.90;;;;;;5013163;28;19916;-80
2022/12/22 12:23:54;;;;;;;;;;;7.80;99.90;;;;;;5013645;28;19925;-81
2022/12/22 12:26:20;;;;;;;;;;;7.90;99.90;;;;;;5013007;28;20007;-81
2022/12/22 12:28:55;;;;;;;;;;;7.80;99.90;;;;;;5013046;28;20350;-81
2022/12/22 12:31:23;;;;;;;;;;;7.80;99.90;;;;;;5013245;28;20030;-81
2022/12/22 12:33:51;;;;;;;;;;;7.80;99.90;;;;;;5013247;28;20381;-81
2022/12/22 12:36:38;;;;;;;;;;;7.80;99.90;;;;;;5012055;28;19917;-82
2022/12/22 12:39:13;;;;;;;;;;;7.80;99.90;;;;;;5013095;28;20321;-81
2022/12/22 12:41:41;;;;;;;;;;;7.80;99.90;;;;;;5013601;28;19941;-81
2022/12/22 12:44:11;;;;;;;;;;;7.80;99.90;;;;;;5013522;28;19910;-81
2022/12/22 12:46:49;;;;;;;;;;;7.80;99.90;;;;;;5013391;28;20433;-80
2022/12/22 12:49:32;;;;;;;;;;;7.80;99.90;;;;;;5012601;28;19909;-82
2022/12/22 12:52:08;;;;;;;;;;;7.80;99.90;;;;;;5012986;28;19909;-80
2022/12/22 12:54:38;;;;;;;;;;;7.80;99.90;;;;;;5013613;28;20015;-81
2022/12/22 12:57:06;;;;;;;;;;;7.70;99.90;;;;;;5013036;28;19964;-81
2022/12/22 12:59:38;;;;;;;;;;;7.80;99.90;;;;;;5012884;28;19916;-80
2022/12/22 13:02:23;;;;;;;;;;;7.80;99.90;;;;;;5012695;28;19950;-81
2022/12/22 13:04:59;;;;;;;;;;;7.90;99.90;;;;;;5013231;28;19914;-81
2022/12/22 13:07:43;;;;;;;;;;;7.90;99.90;;;;;;5013140;28;19972;-81
2022/12/22 13:10:19;;;;;;;;;;;7.90;99.90;;;;;;5013602;28;19916;-82
2022/12/22 13:12:50;;;;;;;;;;;7.90;99.90;;;;;;5014802;28;19910;-82
2022/12/22 13:15:31;;;;;;;;;;;8.00;99.90;;;;;;5014651;28;19913;-82
2022/12/22 13:17:56;;;;;;;;;;;8.00;99.90;;;;;;5014927;28;20283;-82
2022/12/22 13:20:25;;;;;;;;;;;8.00;99.90;;;;;;5014458;28;19916;-82
2022/12/22 13:22:52;;;;;;;;;;;8.10;99.90;;;;;;5014311;28;19909;-82
2022/12/22 13:25:17;;;;;;;;;;;8.00;99.90;;;;;;5013516;28;19996;-82
2022/12/22 13:27:43;;;;;;;;;;;8.00;99.90;;;;;;5019078;28;19976;-79
2022/12/22 13:30:14;;;;;;;;;;;8.00;99.90;;;;;;5035745;28;19929;-86
2022/12/22 13:32:40;;;;;;;;;;;8.00;99.90;;;;;;5036067;28;19932;-81
2022/12/22 13:35:38;;;;;;;;;;;8.00;99.90;;;;;;5035855;28;19993;-85
2022/12/22 13:38:04;;;;;;;;;;;8.00;99.90;;;;;;4995286;28;19914;-84
2022/12/22 13:40:30;;;;;;;;;;;8.00;99.90;;;;;;4993915;28;19949;-83
2022/12/22 13:43:02;;;;;;;;;;;8.00;99.90;;;;;;4994198;28;19902;-82
2022/12/22 13:45:30;;;;;;;;;;;8.00;99.90;;;;;;4993875;28;20001;-84
2022/12/22 13:47:57;;;;;;;;;;;7.90;99.90;;;;;;4980733;28;19989;-80
2022/12/22 13:50:25;;;;;;;;;;;7.90;99.90;;;;;;4970007;28;19918;-81
2022/12/22 13:52:51;;;;;;;;;;;7.90;99.90;;;;;;4970994;28;19961;-81
2022/12/22 13:55:23;;;;;;;;;;;7.90;99.90;;;;;;4969926;28;19910;-81
2022/12/22 13:57:50;;;;;;;;;;;7.90;99.90;;;;;;4970489;28;19910;-82
2022/12/22 14:00:20;;;;;;;;;;;7.90;99.90;;;;;;4969710;28;19914;-82
2022/12/22 14:02:45;;;;;;;;;;;7.90;99.90;;;;;;4969775;28;20449;-81
2022/12/22 14:05:12;;;;;;;;;;;7.80;99.90;;;;;;4953965;28;19946;-82
2022/12/22 14:07:37;;;;;;;;;;;7.80;99.90;;;;;;4971521;28;20279;-82
2022/12/22 14:10:03;;;;;;;;;;;7.80;99.90;;;;;;4970237;28;19940;-81
2022/12/22 14:12:31;;;;;;;;;;;7.70;99.90;;;;;;4971250;28;20052;-82
2022/12/22 14:14:58;;;;;;;;;;;7.70;99.90;;;;;;5012046;28;19909;-82
2022/12/22 14:17:23;;;;;;;;;;;7.70;99.90;;;;;;5011268;28;19910;-83
2022/12/22 14:19:50;;;;;;;;;;;7.70;99.90;;;;;;5011883;28;20049;-81
2022/12/22 14:22:17;;;;;;;;;;;7.60;99.90;;;;;;5012511;28;19913;-83
2022/12/22 14:24:45;;;;;;;;;;;7.60;99.90;;;;;;5015212;28;19939;-81
2022/12/22 14:27:16;;;;;;;;;;;7.60;99.90;;;;;;5014502;28;19928;-82
2022/12/22 14:29:41;;;;;;;;;;;7.60;99.90;;;;;;5014406;28;19954;-82
2022/12/22 14:32:07;;;;;;;;;;;7.70;99.90;;;;;;5014931;28;19957;-82
2022/12/22 14:34:33;;;;;;;;;;;7.70;99.90;;;;;;5014599;28;19910;-82
2022/12/22 14:37:00;;;;;;;;;;;7.80;99.90;;;;;;5014922;28;20259;-82
2022/12/22 14:39:30;;;;;;;;;;;7.80;99.90;;;;;;5014807;28;19936;-82
2022/12/22 14:41:58;;;;;;;;;;;7.80;99.90;;;;;;5015116;28;19913;-82
2022/12/22 14:44:34;;;;;;;;;;;7.80;99.90;;;;;;5014932;28;20243;-81
2022/12/22 14:46:59;;;;;;;;;;;7.80;99.90;;;;;;5014919;28;20012;-81
2022/12/22 14:49:25;;;;;;;;;;;7.80;99.90;;;;;;5014465;28;19960;-82
2022/12/22 14:51:52;;;;;;;;;;;7.70;99.90;;;;;;5013585;28;19917;-82
2022/12/22 14:54:20;;;;;;;;;;;7.60;99.90;;;;;;5014712;28;20012;-82
2022/12/22 14:56:51;;;;;;;;;;;7.60;99.90;;;;;;5015245;28;19913;-82
2022/12/22 14:59:27;;;;;;;;;;;7.50;99.90;;;;;;5014776;28;19967;-82
2022/12/22 15:02:15;;;;;;;;;;;7.40;99.90;;;;;;5015029;28;19910;-82
2022/12/22 15:04:41;;;;;;;;;;;7.40;99.90;;;;;;5007936;28;20231;-82
2022/12/22 15:07:18;;;;;;;;;;;7.30;99.90;;;;;;5014563;28;19917;-81
2022/12/22 15:09:44;;;;;;;;;;;7.30;99.90;;;;;;5014496;28;19910;-82
2022/12/22 15:12:11;;;;;;;;;;;7.30;99.90;;;;;;5013800;28;20286;-86
2022/12/22 15:14:37;;;;;;;;;;;7.20;99.90;;;;;;5014479;28;20000;-82
2022/12/22 15:17:03;;;;;;;;;;;7.20;99.90;;;;;;5013826;28;19916;-81
2022/12/22 15:19:30;;;;;;;;;;;7.20;99.90;;;;;;5013644;28;19997;-80
2022/12/22 15:21:56;;;;;;;;;;;7.20;99.90;;;;;;5014214;28;20012;-82
2022/12/22 15:24:22;;;;;;;;;;;7.20;99.90;;;;;;5012670;28;19910;-82
2022/12/22 15:26:47;;;;;;;;;;;7.20;99.90;;;;;;5013932;28;20165;-82
2022/12/22 15:29:13;;;;;;;;;;;7.20;99.90;;;;;;5013899;28;20240;-82
2022/12/22 15:31:39;;;;;;;;;;;7.10;99.90;;;;;;5013976;28;19952;-82
2022/12/22 15:34:09;;;;;;;;;;;7.20;99.90;;;;;;5012949;28;19917;-82
2022/12/22 15:36:35;;;;;;;;;;;7.10;99.90;;;;;;5013561;28;19958;-82
2022/12/22 15:39:00;;;;;;;;;;;7.10;99.90;;;;;;5013646;28;19965;-82
2022/12/22 15:41:26;;;;;;;;;;;7.10;99.90;;;;;;5011478;28;19917;-82
2022/12/22 15:43:52;;;;;;;;;;;7.00;99.90;;;;;;5013384;28;20336;-82
2022/12/22 15:46:17;;;;;;;;;;;6.90;99.90;;;;;;5014074;28;20406;-82
2022/12/22 15:48:43;;;;;;;;;;;6.90;99.90;;;;;;5014580;28;19917;-82
2022/12/22 15:51:16;;;;;;;;;;;6.80;99.90;;;;;;5014114;28;20004;-85
2022/12/22 15:53:41;;;;;;;;;;;6.80;99.90;;;;;;5014368;28;19909;-83
2022/12/22 15:56:11;;;;;;;;;;;6.80;99.90;;;;;;5014581;28;19983;-83
2022/12/22 15:58:36;;;;;;;;;;;6.70;99.90;;;;;;5013712;28;19996;-83
2022/12/22 16:01:02;;;;;;;;;;;6.70;99.90;;;;;;5013422;28;19952;-83
2022/12/22 16:03:27;;;;;;;;;;;6.60;99.90;;;;;;5013867;28;19909;-83
2022/12/22 16:05:53;;;;;;;;;;;6.60;99.90;;;;;;5013589;28;19933;-83
2022/12/22 16:08:21;;;;;;;;;;;6.60;99.90;;;;;;5013439;28;19936;-81
2022/12/22 16:10:47;;;;;;;;;;;6.50;99.90;;;;;;5013857;28;19909;-81
2022/12/22 16:13:14;;;;;;;;;;;6.50;99.90;;;;;;5013728;28;19979;-80
2022/12/22 16:15:40;;;;;;;;;;;6.50;99.90;;;;;;5014059;28;20004;-80
2022/12/22 16:18:05;;;;;;;;;;;6.40;99.90;;;;;;5013631;28;20371;-80
2022/12/22 16:20:35;;;;;;;;;;;6.40;99.90;;;;;;5012887;28;19906;-80
2022/12/22 16:23:01;;;;;;;;;;;6.30;99.90;;;;;;5013594;28;19915;-80
2022/12/22 16:25:35;;;;;;;;;;;6.20;99.90;;;;;;5012824;28;19996;-80
2022/12/22 16:28:01;;;;;;;;;;;6.20;99.90;;;;;;5012224;28;19953;-79
2022/12/22 16:30:28;;;;;;;;;;;6.20;99.90;;;;;;5011991;28;20349;-81
2022/12/22 16:32:53;;;;;;;;;;;6.10;99.90;;;;;;5013518;28;20355;-81
2022/12/22 16:35:23;;;;;;;;;;;6.10;99.90;;;;;;5012895;28;19956;-81
2022/12/22 16:37:48;;;;;;;;;;;6.10;99.90;;;;;;5013394;28;19992;-81
2022/12/22 16:40:15;;;;;;;;;;;6.10;99.90;;;;;;5012569;28;20369;-82
2022/12/22 16:42:43;;;;;;;;;;;6.00;99.90;;;;;;5011947;28;20251;-79
2022/12/22 16:45:17;;;;;;;;;;;6.00;99.90;;;;;;5013109;28;19982;-80
2022/12/22 16:47:42;;;;;;;;;;;6.00;99.90;;;;;;5011000;28;20013;-80
2022/12/22 16:50:15;;;;;;;;;;;6.00;99.90;;;;;;5010706;28;20004;-81
2022/12/22 16:52:40;;;;;;;;;;;6.00;99.90;;;;;;5012178;28;19968;-80
2022/12/22 16:55:13;;;;;;;;;;;6.00;99.90;;;;;;5012019;28;19910;-80
2022/12/22 16:57:39;;;;;;;;;;;5.90;99.90;;;;;;5010668;28;19913;-81
2022/12/22 17:00:05;;;;;;;;;;;5.90;99.90;;;;;;5010454;28;20051;-80
2022/12/22 17:02:32;;;;;;;;;;;5.90;99.90;;;;;;5011628;28;20071;-80
2022/12/22 17:05:00;;;;;;;;;;;5.90;99.90;;;;;;5011679;28;19909;-81
2022/12/22 17:07:26;;;;;;;;;;;5.80;99.90;;;;;;5011444;28;19928;-82
2022/12/22 17:09:55;;;;;;;;;;;5.80;99.90;;;;;;5011865;28;19910;-83
2022/12/22 17:12:23;;;;;;;;;;;5.80;99.90;;;;;;5011827;28;19921;-82
2022/12/22 17:14:50;;;;;;;;;;;5.80;99.90;;;;;;5012055;28;19909;-83
2022/12/22 17:17:16;;;;;;;;;;;5.80;99.90;;;;;;5011738;28;19917;-82
2022/12/22 17:19:42;;;;;;;;;;;5.70;99.90;;;;;;5011700;28;19909;-82
2022/12/22 17:22:17;;;;;;;;;;;5.70;99.90;;;;;;5012178;28;19988;-83
2022/12/22 17:24:42;;;;;;;;;;;5.70;99.90;;;;;;5012486;28;19913;-82
2022/12/22 17:27:09;;;;;;;;;;;5.60;99.90;;;;;;5011772;28;20240;-83
2022/12/22 17:29:37;;;;;;;;;;;5.60;99.90;;;;;;5012103;28;19914;-84
2022/12/22 17:32:03;;;;;;;;;;;5.60;99.90;;;;;;5012355;28;19910;-84
2022/12/22 17:34:28;;;;;;;;;;;5.50;99.90;;;;;;5011930;28;19932;-83
2022/12/22 17:36:57;;;;;;;;;;;5.50;99.90;;;;;;5011826;28;19956;-83
2022/12/22 17:39:24;;;;;;;;;;;5.50;99.90;;;;;;5011939;28;20008;-84
2022/12/22 17:41:50;;;;;;;;;;;5.40;99.90;;;;;;5011929;28;20439;-84
2022/12/22 17:44:17;;;;;;;;;;;5.40;99.90;;;;;;5011837;28;19996;-84
2022/12/22 17:46:43;;;;;;;;;;;5.30;99.90;;;;;;5012058;28;19920;-84
2022/12/22 17:49:08;;;;;;;;;;;5.30;99.90;;;;;;5013555;28;19909;-84
2022/12/22 17:51:34;;;;;;;;;;;5.30;99.90;;;;;;5012898;28;19909;-83
2022/12/22 17:54:00;;;;;;;;;;;5.20;99.90;;;;;;5013152;28;20011;-83
2022/12/22 17:56:26;;;;;;;;;;;5.20;99.90;;;;;;5011984;28;19975;-83
2022/12/22 17:58:51;;;;;;;;;;;5.10;99.90;;;;;;5017358;28;19910;-83
2022/12/22 18:01:18;;;;;;;;;;;5.10;99.90;;;;;;5017495;28;19932;-83
2022/12/22 18:03:43;;;;;;;;;;;5.10;99.90;;;;;;5016897;28;20386;-84
2022/12/22 18:06:09;;;;;;;;;;;5.00;99.90;;;;;;5017461;28;19909;-83
2022/12/22 18:08:35;;;;;;;;;;;5.00;99.90;;;;;;5016340;28;19929;-83
2022/12/22 18:11:00;;;;;;;;;;;5.00;99.90;;;;;;5017029;28;20014;-82
2022/12/22 18:13:26;;;;;;;;;;;5.00;99.90;;;;;;5016981;28;19909;-83
2022/12/22 18:15:53;;;;;;;;;;;5.00;99.90;;;;;;5016952;28;20000;-82
2022/12/22 18:18:19;;;;;;;;;;;4.90;99.90;;;;;;5016468;28;19985;-83
2022/12/22 18:20:48;;;;;;;;;;;4.90;99.90;;;;;;5016580;28;19910;-82